sensor_id;sensor_type;location;lat;lon;timestamp;pressure;altitude;pressure_sealevel;temperature;humidity
47742;BME280;33504;52.066;6.096;2022-07-23T00:01:52;101846.09;;;19.95;43.12
47742;BME280;33504;52.066;6.096;2022-07-23T00:04:20;101846.01;;;19.86;43.22
47742;BME280;33504;52.066;6.096;2022-07-23T00:06:47;101844.28;;;19.56;43.52
47742;BME280;33504;52.066;6.096;2022-07-23T00:09:14;101841.25;;;19.48;43.38
47742;BME280;33504;52.066;6.096;2022-07-23T00:11:41;101839.78;;;19.40;43.39
47742;BME280;33504;52.066;6.096;2022-07-23T00:14:08;101839.50;;;19.55;43.62
47742;BME280;33504;52.066;6.096;2022-07-23T00:16:35;101844.07;;;19.48;43.93
47742;BME280;33504;52.066;6.096;2022-07-23T00:19:01;101842.20;;;19.42;44.02
47742;BME280;33504;52.066;6.096;2022-07-23T00:21:28;101838.31;;;19.12;43.94
47742;BME280;33504;52.066;6.096;2022-07-23T00:23:55;101838.63;;;19.06;44.20
47742;BME280;33504;52.066;6.096;2022-07-23T00:26:22;101840.30;;;19.22;44.18
47742;BME280;33504;52.066;6.096;2022-07-23T00:28:49;101836.08;;;18.96;44.20
47742;BME280;33504;52.066;6.096;2022-07-23T00:31:16;101834.54;;;19.14;44.09
47742;BME280;33504;52.066;6.096;2022-07-23T00:33:43;101834.38;;;19.08;44.12
47742;BME280;33504;52.066;6.096;2022-07-23T00:36:11;101836.03;;;19.00;44.26
47742;BME280;33504;52.066;6.096;2022-07-23T00:38:38;101838.09;;;18.92;44.27
47742;BME280;33504;52.066;6.096;2022-07-23T00:41:05;101838.06;;;18.84;44.39
47742;BME280;33504;52.066;6.096;2022-07-23T00:43:32;101838.62;;;19.03;44.41
47742;BME280;33504;52.066;6.096;2022-07-23T00:45:59;101841.63;;;18.95;44.58
47742;BME280;33504;52.066;6.096;2022-07-23T00:48:26;101837.65;;;18.90;44.65
47742;BME280;33504;52.066;6.096;2022-07-23T00:50:53;101836.87;;;18.85;44.61
47742;BME280;33504;52.066;6.096;2022-07-23T00:53:20;101837.19;;;18.81;44.65
47742;BME280;33504;52.066;6.096;2022-07-23T00:55:48;101834.54;;;18.76;44.69
47742;BME280;33504;52.066;6.096;2022-07-23T00:58:16;101831.64;;;18.43;44.78
47742;BME280;33504;52.066;6.096;2022-07-23T01:00:43;101830.70;;;18.38;44.79
47742;BME280;33504;52.066;6.096;2022-07-23T01:03:10;101830.04;;;18.57;44.72
47742;BME280;33504;52.066;6.096;2022-07-23T01:05:38;101828.37;;;18.52;44.71
47742;BME280;33504;52.066;6.096;2022-07-23T01:08:06;101824.15;;;18.48;44.87
47742;BME280;33504;52.066;6.096;2022-07-23T01:10:33;101822.99;;;18.41;45.11
47742;BME280;33504;52.066;6.096;2022-07-23T01:13:02;101822.45;;;18.79;44.90
47742;BME280;33504;52.066;6.096;2022-07-23T01:15:30;101819.91;;;18.50;45.09
47742;BME280;33504;52.066;6.096;2022-07-23T01:17:57;101819.91;;;18.44;45.36
47742;BME280;33504;52.066;6.096;2022-07-23T01:20:25;101822.28;;;18.17;45.35
47742;BME280;33504;52.066;6.096;2022-07-23T01:22:52;101823.64;;;18.32;45.48
47742;BME280;33504;52.066;6.096;2022-07-23T01:25:20;101819.83;;;18.31;45.30
47742;BME280;33504;52.066;6.096;2022-07-23T01:27:47;101816.78;;;18.08;45.41
47742;BME280;33504;52.066;6.096;2022-07-23T01:30:15;101814.75;;;18.05;45.36
47742;BME280;33504;52.066;6.096;2022-07-23T01:32:42;101817.08;;;18.02;45.40
47742;BME280;33504;52.066;6.096;2022-07-23T01:35:09;101811.89;;;18.02;45.31
47742;BME280;33504;52.066;6.096;2022-07-23T01:37:36;101811.84;;;17.98;45.24
47742;BME280;33504;52.066;6.096;2022-07-23T01:40:05;101811.46;;;18.36;45.16
47742;BME280;33504;52.066;6.096;2022-07-23T01:42:33;101809.93;;;18.08;45.34
47742;BME280;33504;52.066;6.096;2022-07-23T01:45:00;101809.27;;;17.83;45.37
47742;BME280;33504;52.066;6.096;2022-07-23T01:47:27;101805.43;;;18.04;45.37
47742;BME280;33504;52.066;6.096;2022-07-23T01:49:54;101803.64;;;18.22;45.39
47742;BME280;33504;52.066;6.096;2022-07-23T01:52:21;101801.33;;;17.95;45.44
47742;BME280;33504;52.066;6.096;2022-07-23T01:54:47;101806.98;;;17.69;45.44
47742;BME280;33504;52.066;6.096;2022-07-23T01:57:14;101811.16;;;17.64;45.62
47742;BME280;33504;52.066;6.096;2022-07-23T01:59:41;101811.17;;;17.87;45.62
47742;BME280;33504;52.066;6.096;2022-07-23T02:02:07;101810.35;;;17.86;45.64
47742;BME280;33504;52.066;6.096;2022-07-23T02:04:35;101806.88;;;17.63;45.54
47742;BME280;33504;52.066;6.096;2022-07-23T02:07:02;101806.23;;;18.03;45.59
47742;BME280;33504;52.066;6.096;2022-07-23T02:09:30;101809.81;;;17.78;45.59
47742;BME280;33504;52.066;6.096;2022-07-23T02:11:58;101806.79;;;17.95;45.57
47742;BME280;33504;52.066;6.096;2022-07-23T02:14:25;101808.21;;;17.92;45.69
47742;BME280;33504;52.066;6.096;2022-07-23T02:16:52;101811.46;;;17.90;45.63
47742;BME280;33504;52.066;6.096;2022-07-23T02:19:19;101809.38;;;17.88;45.73
47742;BME280;33504;52.066;6.096;2022-07-23T02:21:47;101807.73;;;17.86;45.72
47742;BME280;33504;52.066;6.096;2022-07-23T02:24:15;101806.63;;;17.81;45.75
47742;BME280;33504;52.066;6.096;2022-07-23T02:26:42;101804.47;;;17.76;45.79
47742;BME280;33504;52.066;6.096;2022-07-23T02:29:09;101801.10;;;17.72;45.82
47742;BME280;33504;52.066;6.096;2022-07-23T02:31:36;101798.17;;;17.68;45.85
47742;BME280;33504;52.066;6.096;2022-07-23T02:34:03;101799.46;;;17.66;45.86
47742;BME280;33504;52.066;6.096;2022-07-23T02:36:30;101799.69;;;17.63;45.80
47742;BME280;33504;52.066;6.096;2022-07-23T02:38:57;101801.58;;;17.61;45.86
47742;BME280;33504;52.066;6.096;2022-07-23T02:41:24;101803.49;;;17.60;45.82
47742;BME280;33504;52.066;6.096;2022-07-23T02:43:52;101803.50;;;17.55;45.81
47742;BME280;33504;52.066;6.096;2022-07-23T02:46:18;101799.80;;;17.50;45.90
47742;BME280;33504;52.066;6.096;2022-07-23T02:48:45;101800.04;;;17.47;45.90
47742;BME280;33504;52.066;6.096;2022-07-23T02:51:13;101801.37;;;17.21;45.92
47742;BME280;33504;52.066;6.096;2022-07-23T02:53:39;101803.13;;;17.37;45.76
47742;BME280;33504;52.066;6.096;2022-07-23T02:56:06;101808.35;;;17.35;45.98
47742;BME280;33504;52.066;6.096;2022-07-23T02:58:33;101812.10;;;17.32;46.05
47742;BME280;33504;52.066;6.096;2022-07-23T03:01:00;101816.56;;;17.30;46.08
47742;BME280;33504;52.066;6.096;2022-07-23T03:03:26;101815.04;;;17.26;45.91
47742;BME280;33504;52.066;6.096;2022-07-23T03:05:53;101810.86;;;17.19;45.87
47742;BME280;33504;52.066;6.096;2022-07-23T03:08:20;101808.72;;;17.16;45.99
47742;BME280;33504;52.066;6.096;2022-07-23T03:10:47;101811.07;;;17.11;45.94
47742;BME280;33504;52.066;6.096;2022-07-23T03:13:13;101809.13;;;17.08;46.02
47742;BME280;33504;52.066;6.096;2022-07-23T03:15:40;101804.56;;;17.04;46.03
47742;BME280;33504;52.066;6.096;2022-07-23T03:18:07;101805.68;;;17.01;46.01
47742;BME280;33504;52.066;6.096;2022-07-23T03:20:33;101807.20;;;17.24;45.99
47742;BME280;33504;52.066;6.096;2022-07-23T03:23:00;101806.67;;;16.92;46.00
47742;BME280;33504;52.066;6.096;2022-07-23T03:25:27;101806.64;;;17.12;46.07
47742;BME280;33504;52.066;6.096;2022-07-23T03:27:54;101806.19;;;17.30;46.01
47742;BME280;33504;52.066;6.096;2022-07-23T03:30:21;101813.74;;;17.02;46.04
47742;BME280;33504;52.066;6.096;2022-07-23T03:32:48;101822.54;;;17.21;46.13
47742;BME280;33504;52.066;6.096;2022-07-23T03:35:15;101822.25;;;16.93;45.98
47742;BME280;33504;52.066;6.096;2022-07-23T03:37:42;101819.87;;;16.85;46.20
47742;BME280;33504;52.066;6.096;2022-07-23T03:40:10;101815.70;;;17.06;46.12
47742;BME280;33504;52.066;6.096;2022-07-23T03:42:37;101817.55;;;16.81;46.14
47742;BME280;33504;52.066;6.096;2022-07-23T03:45:05;101817.30;;;16.81;46.09
47742;BME280;33504;52.066;6.096;2022-07-23T03:47:32;101819.89;;;16.52;46.11
47742;BME280;33504;52.066;6.096;2022-07-23T03:49:59;101822.75;;;16.98;46.19
47742;BME280;33504;52.066;6.096;2022-07-23T03:52:26;101822.93;;;16.50;46.20
47742;BME280;33504;52.066;6.096;2022-07-23T03:54:52;101824.59;;;16.74;46.23
47742;BME280;33504;52.066;6.096;2022-07-23T03:57:19;101824.30;;;16.95;46.16
47742;BME280;33504;52.066;6.096;2022-07-23T03:59:47;101823.97;;;16.44;46.14
47742;BME280;33504;52.066;6.096;2022-07-23T04:02:13;101826.84;;;16.88;46.33
47742;BME280;33504;52.066;6.096;2022-07-23T04:04:40;101829.69;;;16.64;46.18
47742;BME280;33504;52.066;6.096;2022-07-23T04:07:07;101832.88;;;16.61;46.17
47742;BME280;33504;52.066;6.096;2022-07-23T04:09:34;101833.37;;;16.81;46.34
47742;BME280;33504;52.066;6.096;2022-07-23T04:12:01;101827.17;;;16.58;46.34
47742;BME280;33504;52.066;6.096;2022-07-23T04:14:28;101824.81;;;16.59;46.26
47742;BME280;33504;52.066;6.096;2022-07-23T04:16:54;101825.60;;;16.59;46.23
47742;BME280;33504;52.066;6.096;2022-07-23T04:19:21;101826.73;;;16.82;46.19
47742;BME280;33504;52.066;6.096;2022-07-23T04:21:48;101824.31;;;16.82;46.23
47742;BME280;33504;52.066;6.096;2022-07-23T04:24:14;101826.60;;;16.81;46.27
47742;BME280;33504;52.066;6.096;2022-07-23T04:26:41;101823.22;;;16.83;46.25
47742;BME280;33504;52.066;6.096;2022-07-23T04:29:08;101821.30;;;16.85;46.29
47742;BME280;33504;52.066;6.096;2022-07-23T04:31:34;101822.09;;;16.64;46.26
47742;BME280;33504;52.066;6.096;2022-07-23T04:34:01;101821.41;;;16.92;46.16
47742;BME280;33504;52.066;6.096;2022-07-23T04:36:29;101824.75;;;16.41;46.35
47742;BME280;33504;52.066;6.096;2022-07-23T04:38:55;101826.44;;;16.93;46.29
47742;BME280;33504;52.066;6.096;2022-07-23T04:41:23;101829.96;;;16.71;46.32
47742;BME280;33504;52.066;6.096;2022-07-23T04:43:49;101829.51;;;16.96;46.32
47742;BME280;33504;52.066;6.096;2022-07-23T04:46:16;101831.93;;;16.76;46.39
47742;BME280;33504;52.066;6.096;2022-07-23T04:48:43;101832.07;;;16.99;46.41
47742;BME280;33504;52.066;6.096;2022-07-23T04:51:09;101830.27;;;16.80;46.48
47742;BME280;33504;52.066;6.096;2022-07-23T04:53:37;101830.77;;;16.82;46.52
47742;BME280;33504;52.066;6.096;2022-07-23T04:56:05;101829.44;;;16.60;46.59
47742;BME280;33504;52.066;6.096;2022-07-23T04:58:32;101831.98;;;16.64;46.59
47742;BME280;33504;52.066;6.096;2022-07-23T05:00:59;101828.34;;;16.99;46.62
47742;BME280;33504;52.066;6.096;2022-07-23T05:03:26;101826.98;;;17.08;46.56
47742;BME280;33504;52.066;6.096;2022-07-23T05:05:54;101827.44;;;17.35;46.54
47742;BME280;33504;52.066;6.096;2022-07-23T05:08:20;101829.92;;;16.89;46.51
47742;BME280;33504;52.066;6.096;2022-07-23T05:10:48;101833.37;;;17.19;46.61
47742;BME280;33504;52.066;6.096;2022-07-23T05:13:16;101834.48;;;17.00;46.58
47742;BME280;33504;52.066;6.096;2022-07-23T05:15:43;101834.57;;;17.04;46.56
47742;BME280;33504;52.066;6.096;2022-07-23T05:18:11;101836.55;;;17.40;46.53
47742;BME280;33504;52.066;6.096;2022-07-23T05:20:38;101840.82;;;17.23;46.59
47742;BME280;33504;52.066;6.096;2022-07-23T05:23:05;101846.71;;;17.61;46.63
47742;BME280;33504;52.066;6.096;2022-07-23T05:25:31;101849.50;;;17.39;46.67
47742;BME280;33504;52.066;6.096;2022-07-23T05:27:59;101853.77;;;17.45;46.63
47742;BME280;33504;52.066;6.096;2022-07-23T05:30:26;101856.99;;;17.50;46.69
47742;BME280;33504;52.066;6.096;2022-07-23T05:32:53;101859.16;;;17.59;46.60
47742;BME280;33504;52.066;6.096;2022-07-23T05:35:20;101864.65;;;17.72;46.55
47742;BME280;33504;52.066;6.096;2022-07-23T05:37:48;101864.67;;;17.61;46.51
47742;BME280;33504;52.066;6.096;2022-07-23T05:40:14;101865.71;;;17.51;46.46
47742;BME280;33504;52.066;6.096;2022-07-23T05:42:41;101868.66;;;18.05;46.43
47742;BME280;33504;52.066;6.096;2022-07-23T05:45:09;101873.39;;;18.13;46.42
47742;BME280;33504;52.066;6.096;2022-07-23T05:47:41;101877.44;;;17.79;46.36
47742;BME280;33504;52.066;6.096;2022-07-23T05:50:09;101879.41;;;17.94;46.26
47742;BME280;33504;52.066;6.096;2022-07-23T05:52:36;101879.70;;;18.49;46.09
47742;BME280;33504;52.066;6.096;2022-07-23T05:55:03;101886.27;;;18.18;46.09
47742;BME280;33504;52.066;6.096;2022-07-23T05:57:30;101891.11;;;18.35;45.90
47742;BME280;33504;52.066;6.096;2022-07-23T05:59:57;101888.89;;;18.52;45.76
47742;BME280;33504;52.066;6.096;2022-07-23T06:02:23;101887.71;;;18.55;45.44
47742;BME280;33504;52.066;6.096;2022-07-23T06:04:51;101888.05;;;18.68;45.44
47742;BME280;33504;52.066;6.096;2022-07-23T06:07:18;101889.68;;;18.81;45.40
47742;BME280;33504;52.066;6.096;2022-07-23T06:09:44;101893.56;;;18.89;45.06
47742;BME280;33504;52.066;6.096;2022-07-23T06:12:11;101895.33;;;19.02;45.18
47742;BME280;33504;52.066;6.096;2022-07-23T06:14:37;101891.67;;;19.14;45.05
47742;BME280;33504;52.066;6.096;2022-07-23T06:17:05;101890.00;;;19.21;44.80
47742;BME280;33504;52.066;6.096;2022-07-23T06:19:32;101891.34;;;19.10;44.67
47742;BME280;33504;52.066;6.096;2022-07-23T06:21:58;101886.33;;;19.47;44.40
47742;BME280;33504;52.066;6.096;2022-07-23T06:24:26;101884.09;;;19.25;43.86
47742;BME280;33504;52.066;6.096;2022-07-23T06:26:52;101885.28;;;19.17;44.28
47742;BME280;33504;52.066;6.096;2022-07-23T06:29:19;101885.57;;;19.37;44.09
47742;BME280;33504;52.066;6.096;2022-07-23T06:31:46;101886.09;;;19.49;43.73
47742;BME280;33504;52.066;6.096;2022-07-23T06:34:13;101885.75;;;19.62;42.84
47742;BME280;33504;52.066;6.096;2022-07-23T06:36:40;101885.33;;;19.71;42.66
47742;BME280;33504;52.066;6.096;2022-07-23T06:39:07;101884.02;;;19.66;42.98
47742;BME280;33504;52.066;6.096;2022-07-23T06:41:34;101883.28;;;19.87;42.77
47742;BME280;33504;52.066;6.096;2022-07-23T06:44:01;101880.65;;;20.05;42.20
47742;BME280;33504;52.066;6.096;2022-07-23T06:46:29;101884.33;;;20.22;42.58
47742;BME280;33504;52.066;6.096;2022-07-23T06:48:56;101885.70;;;20.35;41.77
47742;BME280;33504;52.066;6.096;2022-07-23T06:51:23;101892.70;;;20.49;41.87
47742;BME280;33504;52.066;6.096;2022-07-23T06:53:50;101898.51;;;20.54;41.55
47742;BME280;33504;52.066;6.096;2022-07-23T06:56:17;101901.82;;;20.60;41.10
47742;BME280;33504;52.066;6.096;2022-07-23T06:58:43;101900.53;;;20.62;40.88
47742;BME280;33504;52.066;6.096;2022-07-23T07:01:10;101910.60;;;20.55;41.16
47742;BME280;33504;52.066;6.096;2022-07-23T07:03:37;101902.90;;;20.77;40.16
47742;BME280;33504;52.066;6.096;2022-07-23T07:06:04;101905.96;;;20.87;39.83
47742;BME280;33504;52.066;6.096;2022-07-23T07:08:31;101909.36;;;21.06;39.23
47742;BME280;33504;52.066;6.096;2022-07-23T07:10:58;101910.90;;;21.20;39.49
47742;BME280;33504;52.066;6.096;2022-07-23T07:13:24;101910.81;;;21.40;38.53
47742;BME280;33504;52.066;6.096;2022-07-23T07:15:52;101914.04;;;21.52;38.00
47742;BME280;33504;52.066;6.096;2022-07-23T07:18:18;101919.83;;;21.42;38.04
47742;BME280;33504;52.066;6.096;2022-07-23T07:20:46;101918.20;;;21.53;38.02
47742;BME280;33504;52.066;6.096;2022-07-23T07:23:13;101914.06;;;21.63;38.53
47742;BME280;33504;52.066;6.096;2022-07-23T07:25:41;101912.04;;;21.47;38.45
47742;BME280;33504;52.066;6.096;2022-07-23T07:28:08;101914.06;;;21.97;38.61
47742;BME280;33504;52.066;6.096;2022-07-23T07:30:36;101916.32;;;21.97;38.26
47742;BME280;33504;52.066;6.096;2022-07-23T07:33:03;101916.62;;;22.22;36.83
47742;BME280;33504;52.066;6.096;2022-07-23T07:35:30;101914.81;;;22.39;37.48
47742;BME280;33504;52.066;6.096;2022-07-23T07:37:58;101910.65;;;22.89;37.09
47742;BME280;33504;52.066;6.096;2022-07-23T07:40:25;101910.81;;;22.73;37.35
47742;BME280;33504;52.066;6.096;2022-07-23T07:42:53;101912.52;;;22.62;36.11
47742;BME280;33504;52.066;6.096;2022-07-23T07:45:21;101916.68;;;23.13;36.47
47742;BME280;33504;52.066;6.096;2022-07-23T07:47:49;101918.01;;;22.98;36.77
47742;BME280;33504;52.066;6.096;2022-07-23T07:50:16;101919.59;;;23.26;36.42
47742;BME280;33504;52.066;6.096;2022-07-23T07:52:43;101918.84;;;23.51;36.00
47742;BME280;33504;52.066;6.096;2022-07-23T07:55:11;101919.01;;;22.67;35.70
47742;BME280;33504;52.066;6.096;2022-07-23T07:57:39;101917.55;;;22.87;35.77
47742;BME280;33504;52.066;6.096;2022-07-23T08:00:08;101923.12;;;23.43;35.51
47742;BME280;33504;52.066;6.096;2022-07-23T08:02:42;101924.73;;;23.79;35.19
47742;BME280;33504;52.066;6.096;2022-07-23T08:05:09;101925.12;;;24.17;34.61
47742;BME280;33504;52.066;6.096;2022-07-23T08:07:36;101929.64;;;24.11;33.36
47742;BME280;33504;52.066;6.096;2022-07-23T08:10:05;101932.55;;;24.17;32.65
47742;BME280;33504;52.066;6.096;2022-07-23T08:12:38;101934.69;;;24.47;33.04
47742;BME280;33504;52.066;6.096;2022-07-23T08:15:06;101934.67;;;24.50;33.25
47742;BME280;33504;52.066;6.096;2022-07-23T08:17:34;101933.56;;;23.86;32.93
47742;BME280;33504;52.066;6.096;2022-07-23T08:20:01;101939.85;;;24.31;33.27
47742;BME280;33504;52.066;6.096;2022-07-23T08:22:42;101941.48;;;24.40;33.17
47742;BME280;33504;52.066;6.096;2022-07-23T08:25:09;101942.96;;;24.24;33.20
47742;BME280;33504;52.066;6.096;2022-07-23T08:27:36;101943.49;;;24.51;33.11
47742;BME280;33504;52.066;6.096;2022-07-23T08:30:05;101945.20;;;24.39;32.51
47742;BME280;33504;52.066;6.096;2022-07-23T08:32:32;101944.09;;;24.92;32.84
47742;BME280;33504;52.066;6.096;2022-07-23T08:34:59;101943.05;;;25.07;32.32
47742;BME280;33504;52.066;6.096;2022-07-23T08:37:26;101940.69;;;25.03;32.52
47742;BME280;33504;52.066;6.096;2022-07-23T08:39:53;101935.84;;;25.29;31.87
47742;BME280;33504;52.066;6.096;2022-07-23T08:42:21;101940.87;;;25.65;32.02
47742;BME280;33504;52.066;6.096;2022-07-23T08:44:48;101939.31;;;25.86;31.60
47742;BME280;33504;52.066;6.096;2022-07-23T08:47:16;101939.66;;;26.09;30.38
47742;BME280;33504;52.066;6.096;2022-07-23T08:49:43;101939.42;;;26.25;30.32
47742;BME280;33504;52.066;6.096;2022-07-23T08:52:11;101939.65;;;26.47;30.70
47742;BME280;33504;52.066;6.096;2022-07-23T08:54:38;101937.19;;;26.48;29.97
47742;BME280;33504;52.066;6.096;2022-07-23T08:57:06;101939.22;;;26.62;29.68
47742;BME280;33504;52.066;6.096;2022-07-23T08:59:33;101938.76;;;26.60;29.53
47742;BME280;33504;52.066;6.096;2022-07-23T09:02:00;101935.15;;;26.23;30.09
47742;BME280;33504;52.066;6.096;2022-07-23T09:04:28;101936.81;;;26.42;30.14
47742;BME280;33504;52.066;6.096;2022-07-23T09:06:55;101938.82;;;26.34;30.43
47742;BME280;33504;52.066;6.096;2022-07-23T09:09:23;101941.53;;;26.76;29.53
47742;BME280;33504;52.066;6.096;2022-07-23T09:12:02;101944.70;;;26.55;29.21
47742;BME280;33504;52.066;6.096;2022-07-23T09:14:39;101944.40;;;26.79;29.56
47742;BME280;33504;52.066;6.096;2022-07-23T09:17:11;101942.82;;;26.16;29.22
47742;BME280;33504;52.066;6.096;2022-07-23T09:19:38;101944.67;;;26.56;28.76
47742;BME280;33504;52.066;6.096;2022-07-23T09:22:23;101947.17;;;26.66;29.11
47742;BME280;33504;52.066;6.096;2022-07-23T09:25:09;101940.79;;;26.76;28.82
47742;BME280;33504;52.066;6.096;2022-07-23T09:27:47;101938.37;;;27.42;28.12
47742;BME280;33504;52.066;6.096;2022-07-23T09:30:14;101931.95;;;27.08;29.29
47742;BME280;33504;52.066;6.096;2022-07-23T09:32:42;101931.95;;;27.19;28.56
47742;BME280;33504;52.066;6.096;2022-07-23T09:35:10;101935.19;;;27.60;28.14
47742;BME280;33504;52.066;6.096;2022-07-23T09:37:37;101937.42;;;27.84;28.02
47742;BME280;33504;52.066;6.096;2022-07-23T09:40:07;101940.83;;;28.18;28.23
47742;BME280;33504;52.066;6.096;2022-07-23T09:42:34;101937.99;;;27.67;26.74
47742;BME280;33504;52.066;6.096;2022-07-23T09:45:02;101939.58;;;27.99;26.67
47742;BME280;33504;52.066;6.096;2022-07-23T09:47:30;101944.54;;;27.67;26.77
47742;BME280;33504;52.066;6.096;2022-07-23T09:50:00;101941.12;;;27.64;27.64
47742;BME280;33504;52.066;6.096;2022-07-23T09:52:28;101945.03;;;27.65;28.36
47742;BME280;33504;52.066;6.096;2022-07-23T09:54:59;101946.99;;;27.87;27.79
47742;BME280;33504;52.066;6.096;2022-07-23T09:57:27;101951.29;;;27.89;27.39
47742;BME280;33504;52.066;6.096;2022-07-23T09:59:58;101948.38;;;27.87;27.17
47742;BME280;33504;52.066;6.096;2022-07-23T10:02:28;101942.72;;;27.93;27.24
47742;BME280;33504;52.066;6.096;2022-07-23T10:04:56;101943.51;;;28.11;27.49
47742;BME280;33504;52.066;6.096;2022-07-23T10:07:26;101942.95;;;28.67;27.44
47742;BME280;33504;52.066;6.096;2022-07-23T10:09:53;101942.94;;;28.13;27.10
47742;BME280;33504;52.066;6.096;2022-07-23T10:12:20;101944.77;;;27.96;27.46
47742;BME280;33504;52.066;6.096;2022-07-23T10:14:48;101941.24;;;28.38;26.47
47742;BME280;33504;52.066;6.096;2022-07-23T10:17:16;101941.39;;;28.34;26.48
47742;BME280;33504;52.066;6.096;2022-07-23T10:19:43;101940.99;;;28.47;26.25
47742;BME280;33504;52.066;6.096;2022-07-23T10:22:13;101936.82;;;28.44;27.44
47742;BME280;33504;52.066;6.096;2022-07-23T10:24:50;101932.20;;;28.27;27.08
47742;BME280;33504;52.066;6.096;2022-07-23T10:28:16;101931.65;;;29.39;27.75
47742;BME280;33504;52.066;6.096;2022-07-23T10:30:55;101928.54;;;27.95;27.27
47742;BME280;33504;52.066;6.096;2022-07-23T10:33:32;101929.31;;;27.52;27.20
47742;BME280;33504;52.066;6.096;2022-07-23T10:36:09;101928.11;;;28.21;27.55
47742;BME280;33504;52.066;6.096;2022-07-23T10:38:48;101925.46;;;28.13;27.48
47742;BME280;33504;52.066;6.096;2022-07-23T10:41:32;101927.95;;;28.28;27.82
47742;BME280;33504;52.066;6.096;2022-07-23T10:44:15;101930.47;;;29.04;27.02
47742;BME280;33504;52.066;6.096;2022-07-23T10:46:59;101926.62;;;28.94;25.80
47742;BME280;33504;52.066;6.096;2022-07-23T10:49:28;101925.11;;;28.55;26.25
47742;BME280;33504;52.066;6.096;2022-07-23T10:52:28;101925.51;;;29.88;26.75
47742;BME280;33504;52.066;6.096;2022-07-23T10:55:38;101925.10;;;29.26;26.23
47742;BME280;33504;52.066;6.096;2022-07-23T10:58:06;101921.41;;;29.19;25.05
47742;BME280;33504;52.066;6.096;2022-07-23T11:00:34;101919.30;;;29.38;25.21
47742;BME280;33504;52.066;6.096;2022-07-23T11:03:03;101923.64;;;29.44;25.68
47742;BME280;33504;52.066;6.096;2022-07-23T11:05:41;101921.60;;;29.45;25.08
47742;BME280;33504;52.066;6.096;2022-07-23T11:08:12;101919.58;;;29.72;24.95
47742;BME280;33504;52.066;6.096;2022-07-23T11:10:41;101917.43;;;29.37;25.58
47742;BME280;33504;52.066;6.096;2022-07-23T11:13:45;101916.66;;;30.80;25.98
47742;BME280;33504;52.066;6.096;2022-07-23T11:16:15;101918.48;;;30.46;25.61
47742;BME280;33504;52.066;6.096;2022-07-23T11:19:15;101918.89;;;30.69;24.80
47742;BME280;33504;52.066;6.096;2022-07-23T11:21:43;101919.84;;;30.06;24.41
47742;BME280;33504;52.066;6.096;2022-07-23T11:24:12;101921.56;;;29.74;25.16
47742;BME280;33504;52.066;6.096;2022-07-23T11:26:50;101920.82;;;29.88;25.44
47742;BME280;33504;52.066;6.096;2022-07-23T11:29:50;101927.15;;;30.96;24.44
47742;BME280;33504;52.066;6.096;2022-07-23T11:32:31;101928.46;;;30.28;24.39
47742;BME280;33504;52.066;6.096;2022-07-23T11:34:58;101924.53;;;30.05;24.30
47742;BME280;33504;52.066;6.096;2022-07-23T11:37:32;101921.30;;;29.93;24.63
47742;BME280;33504;52.066;6.096;2022-07-23T11:40:02;101919.97;;;29.90;25.37
47742;BME280;33504;52.066;6.096;2022-07-23T11:42:30;101920.09;;;30.60;24.46
47742;BME280;33504;52.066;6.096;2022-07-23T11:44:57;101917.04;;;30.39;24.93
47742;BME280;33504;52.066;6.096;2022-07-23T11:47:25;101914.78;;;30.29;23.93
47742;BME280;33504;52.066;6.096;2022-07-23T11:49:54;101912.27;;;30.16;23.48
47742;BME280;33504;52.066;6.096;2022-07-23T11:52:21;101911.47;;;30.12;24.65
47742;BME280;33504;52.066;6.096;2022-07-23T11:54:50;101911.66;;;29.68;24.96
47742;BME280;33504;52.066;6.096;2022-07-23T11:57:18;101911.01;;;29.51;25.47
47742;BME280;33504;52.066;6.096;2022-07-23T11:59:47;101911.02;;;29.02;25.13
47742;BME280;33504;52.066;6.096;2022-07-23T12:02:16;101914.66;;;28.46;25.55
47742;BME280;33504;52.066;6.096;2022-07-23T12:04:46;101913.85;;;28.60;25.13
47742;BME280;33504;52.066;6.096;2022-07-23T12:07:31;101911.36;;;28.54;25.41
47742;BME280;33504;52.066;6.096;2022-07-23T12:10:02;101904.69;;;29.21;25.93
47742;BME280;33504;52.066;6.096;2022-07-23T12:12:36;101902.78;;;29.44;25.11
47742;BME280;33504;52.066;6.096;2022-07-23T12:15:05;101901.66;;;29.75;24.95
47742;BME280;33504;52.066;6.096;2022-07-23T12:17:34;101909.73;;;29.50;25.03
47742;BME280;33504;52.066;6.096;2022-07-23T12:20:03;101907.01;;;29.38;25.19
47742;BME280;33504;52.066;6.096;2022-07-23T12:22:34;101907.66;;;29.21;25.28
47742;BME280;33504;52.066;6.096;2022-07-23T12:25:05;101906.38;;;28.89;25.38
47742;BME280;33504;52.066;6.096;2022-07-23T12:27:33;101907.32;;;29.58;26.25
47742;BME280;33504;52.066;6.096;2022-07-23T12:30:15;101906.02;;;29.55;25.56
47742;BME280;33504;52.066;6.096;2022-07-23T12:32:44;101907.73;;;29.43;24.52
47742;BME280;33504;52.066;6.096;2022-07-23T12:35:11;101909.86;;;29.43;24.38
47742;BME280;33504;52.066;6.096;2022-07-23T12:37:40;101908.17;;;29.27;25.22
47742;BME280;33504;52.066;6.096;2022-07-23T12:40:25;101910.13;;;29.54;25.96
47742;BME280;33504;52.066;6.096;2022-07-23T12:42:57;101908.94;;;29.30;25.86
47742;BME280;33504;52.066;6.096;2022-07-23T12:45:25;101909.30;;;29.50;26.01
47742;BME280;33504;52.066;6.096;2022-07-23T12:47:55;101905.71;;;29.28;25.03
47742;BME280;33504;52.066;6.096;2022-07-23T12:50:42;101901.39;;;29.86;25.01
47742;BME280;33504;52.066;6.096;2022-07-23T12:53:12;101904.13;;;30.61;24.67
47742;BME280;33504;52.066;6.096;2022-07-23T12:55:40;101901.99;;;30.62;24.59
47742;BME280;33504;52.066;6.096;2022-07-23T12:58:10;101900.64;;;30.52;23.32
47742;BME280;33504;52.066;6.096;2022-07-23T13:01:22;101901.32;;;31.53;24.39